Time,TemperatureF,DewpointF,PressureIn,WindDirection,WindDirectionDegrees,WindSpeedMPH,WindSpeedGustMPH,Humidity,HourlyPrecipIn,Conditions,Clouds,dailyrainin,SoftwareType,DateUTC
2013-01-11 00:14:00,39.2,27.7,30.18,SE,135,4.7,-999.0,63,-99.99,,,0.00,Acu-Link.com,2013-01-11 05:14:00,
2013-01-11 00:29:00,41.0,28.6,30.18,South,180,3.6,-999.0,61,-99.99,,,0.00,Acu-Link.com,2013-01-11 05:29:00,
2013-01-11 00:45:00,41.0,29.8,30.17,SSE,157,3.6,-999.0,64,-99.99,,,0.00,Acu-Link.com,2013-01-11 05:45:00,
2013-01-11 01:00:00,41.0,28.6,30.17,ESE,112,2.0,-999.0,61,-99.99,,,0.00,Acu-Link.com,2013-01-11 06:00:00,
2013-01-11 01:15:00,41.0,28.6,30.15,ESE,112,4.7,-999.0,61,-99.99,,,0.00,Acu-Link.com,2013-01-11 06:15:00,
2013-01-11 01:30:00,41.0,28.6,30.14,SSE,157,3.6,-999.0,61,-99.99,,,0.00,Acu-Link.com,2013-01-11 06:30:00,
2013-01-11 01:46:00,41.0,29.0,30.14,South,180,3.6,-999.0,62,-99.99,,,0.00,Acu-Link.com,2013-01-11 06:46:00,
2013-01-11 02:01:00,41.0,28.2,30.13,SSE,157,6.7,-999.0,60,-99.99,,,0.00,Acu-Link.com,2013-01-11 07:01:00,
2013-01-11 02:16:00,41.0,28.6,30.14,SE,135,7.2,-999.0,61,-99.99,,,0.00,Acu-Link.com,2013-01-11 07:16:00,
2013-01-11 02:31:00,41.0,28.6,30.14,SE,135,4.7,-999.0,61,-99.99,,,0.00,Acu-Link.com,2013-01-11 07:31:00,
2013-01-11 02:47:00,41.0,28.6,30.13,SSE,157,4.7,-999.0,61,-99.99,,,0.00,Acu-Link.com,2013-01-11 07:47:00,
2013-01-11 03:02:00,41.0,29.0,30.12,ESE,112,4.0,-999.0,62,-99.99,,,0.00,Acu-Link.com,2013-01-11 08:02:00,
2013-01-11 03:17:00,42.8,30.3,30.11,North,0,5.6,-999.0,61,-99.99,,,0.00,Acu-Link.com,2013-01-11 08:17:00,
2013-01-11 03:32:00,42.8,30.3,30.10,SSE,157,4.0,-999.0,61,-99.99,,,0.00,Acu-Link.com,2013-01-11 08:32:00,
2013-01-11 03:47:00,42.8,31.5,30.10,SSE,157,3.1,-999.0,64,-99.99,,,0.00,Acu-Link.com,2013-01-11 08:47:00,
2013-01-11 04:11:00,42.8,30.7,30.07,SE,135,3.6,-999.0,62,-99.99,,,0.00,Acu-Link.com,2013-01-11 09:11:00,
2013-01-11 04:26:00,42.8,31.5,30.06,SSW,202,4.0,-999.0,64,-99.99,,,0.00,Acu-Link.com,2013-01-11 09:26:00,
2013-01-11 04:41:00,42.8,32.2,30.05,SSE,157,3.1,-999.0,66,-99.99,,,0.00,Acu-Link.com,2013-01-11 09:41:00,
2013-01-11 04:57:00,41.0,34.0,30.05,ESE,112,2.7,-999.0,76,-99.99,,,0.00,Acu-Link.com,2013-01-11 09:57:00,
2013-01-11 05:12:00,41.0,33.4,30.04,SE,135,2.0,-999.0,74,-99.99,,,0.00,Acu-Link.com,2013-01-11 10:12:00,
2013-01-11 05:27:00,41.0,33.7,30.04,ENE,67,3.6,-999.0,75,-99.99,,,0.00,Acu-Link.com,2013-01-11 10:27:00,
2013-01-11 05:42:00,42.8,35.4,30.03,ESE,112,2.0,-999.0,75,-99.99,,,0.00,Acu-Link.com,2013-01-11 10:42:00,
2013-01-11 05:58:00,41.0,35.6,30.03,ESE,112,1.6,-999.0,81,-99.99,,,0.01,Acu-Link.com,2013-01-11 10:58:00,
2013-01-11 06:13:00,41.0,38.3,30.03,East,90,2.7,-999.0,90,-99.99,,,0.02,Acu-Link.com,2013-01-11 11:13:00,
2013-01-11 06:28:00,41.0,38.6,30.01,SSE,157,4.0,-999.0,91,-99.99,,,0.06,Acu-Link.com,2013-01-11 11:28:00,
2013-01-11 06:43:00,41.0,38.6,30.01,South,180,2.7,-999.0,91,-99.99,,,0.07,Acu-Link.com,2013-01-11 11:43:00,
2013-01-11 06:59:00,41.0,38.9,30.01,SSW,202,3.6,-999.0,92,-99.99,,,0.07,Acu-Link.com,2013-01-11 11:59:00,
2013-01-11 07:14:00,41.0,38.9,29.99,ESE,112,4.7,-999.0,92,-99.99,,,0.07,Acu-Link.com,2013-01-11 12:14:00,
2013-01-11 07:29:00,42.8,40.1,29.98,SW,225,4.0,-999.0,90,-99.99,,,0.07,Acu-Link.com,2013-01-11 12:29:00,
2013-01-11 07:45:00,42.8,39.8,29.98,SSE,157,3.1,-999.0,89,-99.99,,,0.07,Acu-Link.com,2013-01-11 12:45:00,
2013-01-11 08:00:00,42.8,39.5,29.97,ESE,112,3.6,-999.0,88,-99.99,,,0.07,Acu-Link.com,2013-01-11 13:00:00,
2013-01-11 08:15:00,42.8,39.2,29.98,SE,135,3.6,-999.0,87,-99.99,,,0.07,Acu-Link.com,2013-01-11 13:15:00,
2013-01-11 08:30:00,44.6,41.3,29.98,SSE,157,3.6,-999.0,88,-99.99,,,0.08,Acu-Link.com,2013-01-11 13:30:00,
2013-01-11 08:45:00,44.6,42.4,29.98,South,180,3.1,-999.0,92,-99.99,,,0.11,Acu-Link.com,2013-01-11 13:45:00,
2013-01-11 09:01:00,42.8,41.2,29.96,SSE,157,3.1,-999.0,94,-99.99,,,0.24,Acu-Link.com,2013-01-11 14:01:00,
2013-01-11 09:16:00,42.8,41.7,29.97,SE,135,2.7,-999.0,96,-99.99,,,0.25,Acu-Link.com,2013-01-11 14:16:00,
2013-01-11 09:31:00,44.6,43.5,29.96,SE,135,4.7,-999.0,96,-99.99,,,0.32,Acu-Link.com,2013-01-11 14:31:00,
2013-01-11 09:47:00,44.6,43.5,29.95,ESE,112,3.1,-999.0,96,-99.99,,,0.34,Acu-Link.com,2013-01-11 14:47:00,
2013-01-11 10:02:00,44.6,43.8,29.95,SSE,157,2.7,-999.0,97,-99.99,,,0.38,Acu-Link.com,2013-01-11 15:02:00,
2013-01-11 10:17:00,44.6,43.8,29.94,SW,225,4.7,-999.0,97,-99.99,,,0.43,Acu-Link.com,2013-01-11 15:17:00,
2013-01-11 10:33:00,44.6,43.8,29.94,SSE,157,0.0,-999.0,97,-99.99,,,0.57,Acu-Link.com,2013-01-11 15:33:00,
2013-01-11 10:48:00,44.6,43.8,29.94,East,90,1.6,-999.0,97,-99.99,,,0.65,Acu-Link.com,2013-01-11 15:48:00,
2013-01-11 11:03:00,44.6,43.8,29.93,SSE,157,2.7,-999.0,97,-99.99,,,0.66,Acu-Link.com,2013-01-11 16:03:00,
2013-01-11 11:19:00,44.6,43.8,29.91,SSW,202,1.6,-999.0,97,-99.99,,,0.66,Acu-Link.com,2013-01-11 16:19:00,
2013-01-11 11:34:00,44.6,43.8,29.92,ESE,112,2.7,-999.0,97,-99.99,,,0.69,Acu-Link.com,2013-01-11 16:34:00,
2013-01-11 11:49:00,46.4,45.6,29.86,SW,225,4.0,-999.0,97,-99.99,,,0.70,Acu-Link.com,2013-01-11 16:49:00,
2013-01-11 12:04:00,46.4,45.6,29.85,South,180,4.7,-999.0,97,-99.99,,,0.70,Acu-Link.com,2013-01-11 17:04:00,
2013-01-11 12:19:00,50.0,49.2,29.81,SSE,157,3.6,-999.0,97,-99.99,,,0.70,Acu-Link.com,2013-01-11 17:19:00,
2013-01-11 12:34:00,51.8,50.1,29.82,WSW,247,2.0,-999.0,94,-99.99,,,0.70,Acu-Link.com,2013-01-11 17:34:00,
2013-01-11 12:50:00,53.6,50.7,29.83,WSW,247,4.0,-999.0,90,-99.99,,,0.70,Acu-Link.com,2013-01-11 17:50:00,
2013-01-11 13:05:00,53.6,50.4,29.85,SE,135,2.7,-999.0,89,-99.99,,,0.70,Acu-Link.com,2013-01-11 18:05:00,
2013-01-11 13:20:00,53.6,50.1,29.86,WSW,247,2.0,-999.0,88,-99.99,,,0.70,Acu-Link.com,2013-01-11 18:20:00,
2013-01-11 13:35:00,51.8,48.7,29.85,West,270,2.0,-999.0,89,-99.99,,,0.70,Acu-Link.com,2013-01-11 18:35:00,
2013-01-11 13:50:00,51.8,48.7,29.86,SW,225,0.0,-999.0,89,-99.99,,,0.70,Acu-Link.com,2013-01-11 18:50:00,
2013-01-11 14:06:00,51.8,49.0,29.86,SSW,202,3.1,-999.0,90,-99.99,,,0.70,Acu-Link.com,2013-01-11 19:06:00,
2013-01-11 14:21:00,51.8,49.0,29.87,SSW,202,2.0,-999.0,90,-99.99,,,0.70,Acu-Link.com,2013-01-11 19:21:00,
2013-01-11 14:36:00,51.8,49.3,29.87,NE,45,0.0,-999.0,91,-99.99,,,0.70,Acu-Link.com,2013-01-11 19:36:00,
2013-01-11 15:07:00,53.6,49.5,29.88,SSW,202,1.6,-999.0,86,-99.99,,,0.70,Acu-Link.com,2013-01-11 20:07:00,
2013-01-11 15:22:00,53.6,49.2,29.87,ESE,112,2.7,-999.0,85,-99.99,,,0.70,Acu-Link.com,2013-01-11 20:22:00,
2013-01-11 15:37:00,55.4,50.3,29.88,West,270,2.0,-999.0,83,-99.99,,,0.70,Acu-Link.com,2013-01-11 20:37:00,
2013-01-11 15:53:00,55.4,50.0,29.88,South,180,2.7,-999.0,82,-99.99,,,0.70,Acu-Link.com,2013-01-11 20:53:00,
2013-01-11 16:08:00,55.4,49.0,29.88,South,180,1.6,-999.0,79,-99.99,,,0.70,Acu-Link.com,2013-01-11 21:08:00,
2013-01-11 16:23:00,55.4,49.3,29.88,WSW,247,2.7,-999.0,80,-99.99,,,0.70,Acu-Link.com,2013-01-11 21:23:00,
2013-01-11 16:38:00,53.6,48.2,29.89,ESE,112,0.0,-999.0,82,-99.99,,,0.70,Acu-Link.com,2013-01-11 21:38:00,
2013-01-11 16:54:00,53.6,48.6,29.89,WSW,247,1.6,-999.0,83,-99.99,,,0.70,Acu-Link.com,2013-01-11 21:54:00,
2013-01-11 17:09:00,53.6,48.9,29.89,SSW,202,0.0,-999.0,84,-99.99,,,0.70,Acu-Link.com,2013-01-11 22:09:00,
2013-01-11 17:24:00,51.8,47.4,29.90,SW,225,0.0,-999.0,85,-99.99,,,0.70,Acu-Link.com,2013-01-11 22:24:00,
2013-01-11 17:40:00,51.8,47.7,29.91,NNE,22,0.0,-999.0,86,-99.99,,,0.70,Acu-Link.com,2013-01-11 22:40:00,
2013-01-11 17:55:00,51.8,48.1,29.91,ESE,112,0.0,-999.0,87,-99.99,,,0.70,Acu-Link.com,2013-01-11 22:55:00,
2013-01-11 18:10:00,51.8,48.7,29.92,ESE,112,0.0,-999.0,89,-99.99,,,0.70,Acu-Link.com,2013-01-11 23:10:00,
2013-01-11 18:25:00,51.8,48.7,29.93,ESE,112,0.0,-999.0,89,-99.99,,,0.70,Acu-Link.com,2013-01-11 23:25:00,
2013-01-11 18:41:00,51.8,48.7,29.93,East,90,0.0,-999.0,89,-99.99,,,0.70,Acu-Link.com,2013-01-11 23:41:00,
2013-01-11 18:56:00,50.0,47.2,29.93,East,90,0.0,-999.0,90,-99.99,,,0.70,Acu-Link.com,2013-01-11 23:56:00,
2013-01-11 19:11:00,50.0,47.8,29.94,SSE,157,2.0,-999.0,92,-99.99,,,0.70,Acu-Link.com,2013-01-12 00:11:00,
2013-01-11 19:26:00,50.0,47.8,29.94,WNW,292,0.0,-999.0,92,-99.99,,,0.70,Acu-Link.com,2013-01-12 00:26:00,
2013-01-11 19:41:00,50.0,47.8,29.94,East,90,0.0,-999.0,92,-99.99,,,0.70,Acu-Link.com,2013-01-12 00:41:00,
2013-01-11 19:57:00,48.2,46.3,29.94,WSW,247,0.0,-999.0,93,-99.99,,,0.70,Acu-Link.com,2013-01-12 00:57:00,
2013-01-11 20:12:00,46.4,45.0,29.95,East,90,0.0,-999.0,95,-99.99,,,0.70,Acu-Link.com,2013-01-12 01:12:00,
2013-01-11 20:27:00,46.4,45.0,29.93,ENE,67,0.0,-999.0,95,-99.99,,,0.70,Acu-Link.com,2013-01-12 01:27:00,
2013-01-11 20:42:00,46.4,45.3,29.94,East,90,0.0,-999.0,96,-99.99,,,0.70,Acu-Link.com,2013-01-12 01:42:00,
2013-01-11 20:57:00,46.4,45.6,29.95,East,90,0.0,-999.0,97,-99.99,,,0.70,Acu-Link.com,2013-01-12 01:57:00,
2013-01-11 21:13:00,46.4,45.6,29.95,ESE,112,0.0,-999.0,97,-99.99,,,0.70,Acu-Link.com,2013-01-12 02:13:00,
2013-01-11 21:28:00,44.6,43.8,29.96,East,90,0.0,-999.0,97,-99.99,,,0.70,Acu-Link.com,2013-01-12 02:28:00,
2013-01-11 21:43:00,44.6,44.1,29.94,East,90,0.0,-999.0,98,-99.99,,,0.70,Acu-Link.com,2013-01-12 02:43:00,
2013-01-11 21:58:00,44.6,44.1,29.94,East,90,0.0,-999.0,98,-99.99,,,0.70,Acu-Link.com,2013-01-12 02:58:00,
2013-01-11 22:13:00,44.6,44.1,29.94,East,90,0.0,-999.0,98,-99.99,,,0.70,Acu-Link.com,2013-01-12 03:13:00,
2013-01-11 22:29:00,44.6,44.1,58.98,East,90,0.0,-999.0,98,-99.99,,,0.70,Acu-Link.com,2013-01-12 03:29:00,
2013-01-11 22:44:00,44.6,44.1,29.93,ESE,112,1.6,-999.0,98,-99.99,,,0.70,Acu-Link.com,2013-01-12 03:44:00,
2013-01-11 23:00:00,44.6,44.1,29.93,East,90,2.0,-999.0,98,-99.99,,,0.70,Acu-Link.com,2013-01-12 04:00:00,
2013-01-11 23:15:00,44.6,44.1,29.93,ESE,112,0.0,-999.0,98,-99.99,,,0.70,Acu-Link.com,2013-01-12 04:15:00,
2013-01-11 23:30:00,44.6,44.1,29.94,East,90,0.0,-999.0,98,-99.99,,,0.70,Acu-Link.com,2013-01-12 04:30:00,
2013-01-11 23:45:00,44.6,44.1,29.93,ESE,112,2.0,-999.0,98,-99.99,,,0.70,Acu-Link.com,2013-01-12 04:45:00,